createdAt,value
2017-11-25T00:00:44.903Z,8.27
2017-11-25T00:01:44.836Z,8.32
2017-11-25T00:02:44.782Z,8.31
2017-11-25T00:03:44.704Z,8.27
2017-11-25T00:04:44.645Z,8.27
2017-11-25T00:05:44.594Z,8.27
2017-11-25T00:06:44.526Z,8.27
2017-11-25T00:07:44.457Z,8.32
2017-11-25T00:08:44.398Z,8.34
2017-11-25T00:09:44.338Z,8.31
2017-11-25T00:10:44.280Z,8.32
2017-11-25T00:11:44.254Z,8.31
2017-11-25T00:12:44.176Z,8.36
2017-11-25T00:13:44.093Z,8.28
2017-11-25T00:14:44.036Z,8.18
2017-11-25T00:15:43.993Z,8.17
2017-11-25T00:16:43.900Z,8.20
2017-11-25T00:17:43.844Z,8.18
2017-11-25T00:18:43.788Z,8.20
2017-11-25T00:19:43.728Z,8.20
2017-11-25T00:20:43.842Z,8.21
2017-11-25T00:21:43.625Z,8.22
2017-11-25T00:22:43.558Z,8.18
2017-11-25T00:23:43.479Z,8.22
2017-11-25T00:24:43.426Z,8.31
2017-11-25T00:25:43.357Z,8.21
2017-11-25T00:26:43.299Z,8.24
2017-11-25T00:27:43.239Z,8.25
2017-11-25T00:28:43.171Z,8.21
2017-11-25T00:29:43.118Z,8.18
2017-11-25T00:30:43.057Z,8.20
2017-11-25T00:31:43.001Z,8.21
2017-11-25T00:32:42.928Z,8.21
2017-11-25T00:33:42.861Z,8.18
2017-11-25T00:34:42.804Z,8.20
2017-11-25T00:35:42.739Z,8.21
2017-11-25T00:36:42.677Z,8.29
2017-11-25T00:37:42.620Z,8.27
2017-11-25T00:38:42.559Z,8.31
2017-11-25T00:39:42.507Z,8.31
2017-11-25T00:40:42.444Z,8.34
2017-11-25T00:41:42.390Z,8.32
2017-11-25T00:42:42.355Z,8.29
2017-11-25T00:43:42.262Z,8.31
2017-11-25T00:44:42.192Z,8.32
2017-11-25T00:45:42.136Z,8.37
2017-11-25T00:46:42.066Z,8.36
2017-11-25T00:47:42.013Z,8.43
2017-11-25T00:48:41.953Z,8.39
2017-11-25T00:49:41.893Z,8.42
2017-11-25T00:50:41.833Z,8.50
2017-11-25T00:51:41.781Z,8.52
2017-11-25T00:52:41.707Z,8.47
2017-11-25T00:53:41.658Z,8.54
2017-11-25T00:54:41.578Z,8.50
2017-11-25T00:55:41.520Z,8.49
2017-11-25T00:56:41.468Z,8.46
2017-11-25T00:57:41.395Z,8.50
2017-11-25T00:58:41.350Z,8.49
2017-11-25T00:59:41.277Z,8.49
2017-11-25T01:00:41.222Z,8.46
2017-11-25T01:01:41.167Z,8.50
2017-11-25T01:02:41.090Z,8.52
2017-11-25T01:03:41.029Z,8.49
2017-11-25T01:04:40.980Z,8.65
2017-11-25T01:05:40.903Z,8.52
2017-11-25T01:06:40.842Z,8.63
2017-11-25T01:07:40.783Z,8.54
2017-11-25T01:08:40.724Z,8.55
2017-11-25T01:09:40.679Z,8.57
2017-11-25T01:10:40.611Z,8.57
2017-11-25T01:11:40.557Z,8.58
2017-11-25T01:12:40.481Z,8.57
2017-11-25T01:13:40.416Z,8.58
2017-11-25T01:14:40.356Z,8.58
2017-11-25T01:15:40.292Z,8.64
2017-11-25T01:16:40.238Z,8.63
2017-11-25T01:17:40.175Z,8.60
2017-11-25T01:18:40.133Z,8.58
2017-11-25T01:19:40.055Z,8.57
2017-11-25T01:20:39.999Z,8.60
2017-11-25T01:21:39.950Z,8.57
2017-11-25T01:22:39.867Z,8.47
2017-11-25T01:23:39.810Z,8.47
2017-11-25T01:24:39.747Z,8.47
2017-11-25T01:25:39.689Z,8.47
2017-11-25T01:26:39.619Z,8.52
2017-11-25T01:27:39.569Z,8.47
2017-11-25T01:28:39.506Z,8.49
2017-11-25T01:29:39.452Z,8.43
2017-11-25T01:30:39.379Z,8.42
2017-11-25T01:31:39.333Z,8.39
2017-11-25T01:32:39.279Z,8.42
2017-11-25T01:33:39.199Z,8.34
2017-11-25T01:34:39.170Z,8.36
2017-11-25T01:35:39.067Z,8.34
2017-11-25T01:36:39.011Z,8.34
2017-11-25T01:37:38.968Z,8.28
2017-11-25T01:38:38.893Z,8.37
2017-11-25T01:39:38.832Z,8.29
2017-11-25T01:40:38.775Z,8.28
2017-11-25T01:41:38.721Z,8.28
2017-11-25T01:42:38.646Z,8.31
2017-11-25T01:43:38.613Z,8.37
2017-11-25T01:44:38.556Z,8.29
2017-11-25T01:45:38.458Z,8.34
2017-11-25T01:46:38.434Z,8.34
2017-11-25T01:47:38.340Z,8.29
2017-11-25T01:48:38.277Z,8.28
2017-11-25T01:49:38.224Z,8.36
2017-11-25T01:50:38.173Z,8.36
2017-11-25T01:51:38.110Z,8.27
2017-11-25T01:52:38.034Z,8.32
2017-11-25T01:53:37.981Z,8.31
2017-11-25T01:54:37.910Z,8.25
2017-11-25T01:55:37.875Z,8.17
2017-11-25T01:56:37.800Z,8.22
2017-11-25T01:57:37.726Z,8.27
2017-11-25T01:58:37.668Z,8.34
2017-11-25T01:59:37.611Z,8.28
2017-11-25T02:00:37.559Z,8.25
2017-11-25T02:01:37.497Z,8.31
2017-11-25T02:02:37.421Z,8.24
2017-11-25T02:03:37.364Z,8.24
2017-11-25T02:04:37.297Z,8.28
2017-11-25T02:05:37.236Z,8.25
2017-11-25T02:06:37.173Z,8.25
2017-11-25T02:07:37.118Z,8.20
2017-11-25T02:08:37.061Z,8.21
2017-11-25T02:09:37.001Z,8.22
2017-11-25T02:10:36.941Z,8.21
2017-11-25T02:11:36.870Z,8.18
2017-11-25T02:12:36.810Z,8.18
2017-11-25T02:13:36.748Z,8.21
2017-11-25T02:14:36.686Z,8.20
2017-11-25T02:15:36.644Z,8.12
2017-11-25T02:16:36.561Z,8.13
2017-11-25T02:17:36.502Z,8.17
2017-11-25T02:18:36.441Z,8.13
2017-11-25T02:19:36.385Z,8.12
2017-11-25T02:20:36.329Z,8.13
2017-11-25T02:21:36.276Z,8.13
2017-11-25T02:22:36.220Z,8.12
2017-11-25T02:23:36.136Z,8.20
2017-11-25T02:24:36.077Z,8.18
2017-11-25T02:25:36.007Z,8.21
2017-11-25T02:26:35.947Z,8.17
2017-11-25T02:27:35.889Z,8.18
2017-11-25T02:28:35.831Z,8.18
2017-11-25T02:29:35.773Z,8.14
2017-11-25T02:30:35.734Z,8.18
2017-11-25T02:31:35.665Z,8.24
2017-11-25T02:32:35.586Z,8.12
2017-11-25T02:33:35.530Z,8.12
2017-11-25T02:34:35.461Z,8.09
2017-11-25T02:35:35.394Z,8.09
2017-11-25T02:36:35.343Z,8.07
2017-11-25T02:37:35.282Z,8.07
2017-11-25T02:38:35.227Z,8.09
2017-11-25T02:39:35.161Z,8.06
2017-11-25T02:40:35.095Z,8.10
2017-11-25T02:41:35.033Z,8.13
2017-11-25T02:42:34.971Z,8.10
2017-11-25T02:43:34.905Z,8.13
2017-11-25T02:44:34.850Z,8.18
2017-11-25T02:45:34.789Z,8.14
2017-11-25T02:46:34.761Z,8.07
2017-11-25T02:47:34.665Z,8.10
2017-11-25T02:48:34.605Z,8.07
2017-11-25T02:49:34.550Z,8.10
2017-11-25T02:50:34.495Z,8.07
2017-11-25T02:51:34.420Z,8.14
2017-11-25T02:52:34.358Z,8.09
2017-11-25T02:53:34.296Z,8.09
2017-11-25T02:54:34.226Z,8.07
2017-11-25T02:55:34.172Z,8.04
2017-11-25T02:56:34.111Z,8.10
2017-11-25T02:57:34.051Z,8.09
2017-11-25T02:58:33.994Z,8.09
2017-11-25T02:59:33.941Z,8.12
2017-11-25T03:00:33.885Z,8.07
2017-11-25T03:01:33.815Z,8.09
2017-11-25T03:02:33.763Z,8.12
2017-11-25T03:03:33.681Z,8.07
2017-11-25T03:04:33.614Z,8.14
2017-11-25T03:05:33.563Z,8.09
2017-11-25T03:06:33.501Z,8.12
2017-11-25T03:07:33.438Z,8.18
2017-11-25T03:08:33.381Z,8.13
2017-11-25T03:09:33.318Z,8.07
2017-11-25T03:10:33.274Z,8.03
2017-11-25T03:11:33.193Z,8.03
2017-11-25T03:12:33.130Z,7.99
2017-11-25T03:13:33.070Z,7.88
2017-11-25T03:14:33.002Z,7.88
2017-11-25T03:15:32.943Z,7.82
2017-11-25T03:16:32.888Z,7.79
2017-11-25T03:17:32.829Z,7.81
2017-11-25T03:18:32.770Z,7.76
2017-11-25T03:19:32.714Z,7.73
2017-11-25T03:20:32.638Z,7.67
2017-11-25T03:21:32.583Z,7.62
2017-11-25T03:22:32.512Z,7.57
2017-11-25T03:23:32.449Z,7.67
2017-11-25T03:24:32.392Z,7.55
2017-11-25T03:25:32.329Z,7.58
2017-11-25T03:26:32.270Z,7.52
2017-11-25T03:27:32.214Z,7.50
2017-11-25T03:28:32.159Z,7.55
2017-11-25T03:29:32.106Z,7.44
2017-11-25T03:30:32.022Z,7.60
2017-11-25T03:31:31.961Z,7.50
2017-11-25T03:32:31.893Z,7.50
2017-11-25T03:33:31.834Z,7.55
2017-11-25T03:34:31.779Z,7.57
2017-11-25T03:35:31.715Z,7.60
2017-11-25T03:36:31.658Z,7.66
2017-11-25T03:37:31.602Z,7.66
2017-11-25T03:38:31.547Z,7.62
2017-11-25T03:39:31.467Z,7.62
2017-11-25T03:40:31.404Z,7.58
2017-11-25T03:41:31.337Z,7.66
2017-11-25T03:42:31.278Z,7.66
2017-11-25T03:43:31.220Z,7.63
2017-11-25T03:44:31.158Z,7.67
2017-11-25T03:45:31.102Z,7.66
2017-11-25T03:46:31.044Z,7.62
2017-11-25T03:47:30.990Z,7.62
2017-11-25T03:48:30.910Z,7.55
2017-11-25T03:49:30.863Z,7.62
2017-11-25T03:50:30.787Z,7.66
2017-11-25T03:51:30.720Z,7.62
2017-11-25T03:52:30.662Z,7.63
2017-11-25T03:53:30.604Z,7.58
2017-11-25T03:54:30.548Z,7.57
2017-11-25T03:55:30.490Z,7.55
2017-11-25T07:50:57.688Z,7.44
2017-11-25T07:51:57.608Z,7.41
2017-11-25T07:53:50.375Z,7.44
2017-11-25T07:54:50.305Z,7.34
2017-11-25T07:56:43.069Z,7.41
2017-11-25T07:57:43.008Z,7.37
2017-11-25T07:59:35.774Z,7.45
2017-11-25T08:00:35.710Z,7.33
2017-11-25T08:02:28.485Z,7.37
2017-11-25T08:03:28.414Z,7.34
2017-11-25T08:05:21.175Z,7.29
2017-11-25T08:06:21.137Z,7.24
2017-11-25T08:08:13.877Z,7.23
2017-11-25T08:09:13.796Z,7.24
2017-11-25T08:11:07.161Z,7.36
2017-11-25T08:12:06.898Z,7.29
2017-11-25T08:13:59.455Z,7.30
2017-11-25T08:14:59.388Z,7.42
2017-11-25T08:16:52.153Z,7.45
2017-11-25T08:17:52.080Z,7.41
2017-11-25T08:19:44.873Z,7.47
2017-11-25T08:20:44.777Z,7.48
2017-11-25T08:22:37.857Z,7.42
2017-11-25T08:23:37.486Z,7.33
2017-11-25T08:25:30.294Z,7.42
2017-11-25T08:26:30.212Z,7.45
2017-11-25T08:28:22.999Z,7.39
2017-11-25T08:29:22.915Z,7.48
2017-11-25T08:31:15.710Z,7.57
2017-11-25T08:32:15.611Z,7.48
2017-11-25T08:34:08.406Z,7.45
2017-11-25T08:35:08.316Z,7.39
2017-11-25T08:37:01.109Z,7.52
2017-11-25T08:38:01.018Z,7.55
2017-11-25T08:39:53.790Z,7.50
2017-11-25T08:40:53.709Z,7.52
2017-11-25T08:42:46.486Z,7.66
2017-11-25T08:43:46.411Z,7.69
2017-11-25T08:45:39.172Z,7.67
2017-11-25T08:46:39.111Z,7.66
2017-11-25T08:48:31.881Z,7.73
2017-11-25T08:49:31.809Z,7.74
2017-11-25T08:51:24.576Z,7.71
2017-11-25T08:52:24.513Z,7.62
2017-11-25T08:54:17.279Z,7.69
2017-11-25T08:55:17.215Z,7.73
2017-11-25T08:57:09.974Z,7.71
2017-11-25T08:58:09.909Z,7.79
2017-11-25T09:00:02.677Z,7.67
2017-11-25T09:01:02.622Z,7.69
2017-11-25T09:02:55.387Z,7.69
2017-11-25T09:03:55.300Z,7.58
2017-11-25T09:05:48.088Z,7.76
2017-11-25T09:06:48.002Z,7.63
2017-11-25T09:08:40.762Z,7.63
2017-11-25T09:09:40.701Z,7.62
2017-11-25T09:11:33.475Z,7.58
2017-11-25T09:12:33.390Z,7.62
2017-11-25T09:14:26.159Z,7.51
2017-11-25T09:15:26.094Z,7.54
2017-11-25T09:17:18.870Z,7.55
2017-11-25T09:18:18.796Z,7.45
2017-11-25T09:20:11.594Z,7.69
2017-11-25T09:21:11.494Z,7.60
2017-11-25T09:23:04.257Z,7.70
2017-11-25T09:24:04.193Z,7.62
2017-11-25T09:25:56.974Z,7.51
2017-11-25T09:26:56.895Z,7.67
2017-11-25T09:28:49.655Z,7.62
2017-11-25T09:29:49.600Z,7.66
2017-11-25T09:31:42.366Z,7.58
2017-11-25T09:32:42.302Z,7.58
2017-11-25T09:34:35.059Z,7.71
2017-11-25T09:35:34.992Z,7.70
2017-11-25T09:37:27.769Z,7.81
2017-11-25T09:38:27.695Z,7.62
2017-11-25T09:40:20.462Z,7.58
2017-11-25T09:41:20.414Z,7.62
2017-11-25T09:43:13.174Z,7.62
2017-11-25T09:44:13.096Z,7.52
2017-11-25T09:46:05.877Z,7.48
2017-11-25T09:47:05.796Z,7.55
2017-11-25T09:48:58.580Z,7.47
2017-11-25T09:49:58.496Z,7.50
2017-11-25T09:51:51.263Z,7.36
2017-11-25T09:52:51.190Z,7.48
2017-11-25T09:54:43.966Z,7.45
2017-11-25T09:55:43.884Z,7.47
2017-11-25T09:57:36.678Z,7.55
2017-11-25T09:58:36.588Z,7.57
2017-11-25T10:00:29.362Z,7.48
2017-11-25T10:01:29.293Z,7.50
2017-11-25T10:03:22.071Z,7.50
2017-11-25T10:04:21.994Z,7.55
2017-11-25T10:06:14.758Z,7.55
2017-11-25T10:07:14.692Z,7.52
2017-11-25T10:09:07.509Z,7.48
2017-11-25T10:10:07.403Z,7.52
2017-11-25T10:12:00.191Z,7.45
2017-11-25T10:13:00.134Z,7.39
2017-11-25T10:14:52.886Z,7.39
2017-11-25T10:15:52.811Z,7.48
2017-11-25T10:17:45.571Z,7.50
2017-11-25T10:18:45.510Z,7.48
2017-11-25T10:20:38.324Z,7.55
2017-11-25T10:21:38.244Z,7.47
2017-11-25T10:23:31.039Z,7.55
2017-11-25T10:24:30.976Z,7.47
2017-11-25T10:26:23.744Z,7.44
2017-11-25T10:27:23.678Z,7.44
2017-11-25T10:29:16.443Z,7.37
2017-11-25T10:30:16.381Z,7.42
2017-11-25T10:32:09.148Z,7.36
2017-11-25T10:33:09.086Z,7.33
2017-11-25T10:35:01.846Z,7.41
2017-11-25T10:36:01.792Z,7.42
2017-11-25T10:37:55.130Z,7.55
2017-11-25T10:38:54.856Z,7.41
2017-11-25T10:40:47.445Z,7.30
2017-11-25T10:41:47.361Z,7.24
2017-11-25T10:43:40.147Z,7.23
2017-11-25T10:44:40.064Z,7.26
2017-11-25T10:46:32.827Z,7.15
2017-11-25T10:47:32.753Z,7.24
2017-11-25T10:49:25.534Z,7.14
2017-11-25T10:50:25.451Z,7.05
2017-11-25T10:52:18.260Z,7.18
2017-11-25T10:53:18.169Z,7.14
2017-11-25T10:55:11.522Z,7.15
2017-11-25T10:56:11.267Z,7.18
2017-11-25T10:58:03.871Z,7.12
2017-11-25T10:59:03.761Z,7.07
2017-11-25T11:00:56.533Z,7.14
2017-11-25T11:01:56.466Z,7.15
2017-11-25T11:03:49.259Z,7.12
2017-11-25T11:04:49.186Z,7.11
2017-11-25T11:06:41.972Z,6.97
2017-11-25T11:07:41.889Z,6.90
2017-11-25T11:09:34.677Z,6.76
2017-11-25T11:10:34.595Z,6.79
2017-11-25T11:12:27.362Z,6.61
2017-11-25T11:13:27.286Z,6.72
2017-11-25T11:15:20.085Z,6.68
2017-11-25T11:16:19.999Z,6.64
2017-11-25T11:18:12.788Z,6.69
2017-11-25T11:19:12.688Z,6.61
2017-11-25T11:21:05.457Z,6.61
2017-11-25T11:22:05.392Z,6.69
2017-11-25T11:23:58.165Z,6.58
2017-11-25T11:24:58.087Z,6.54
2017-11-25T11:26:50.852Z,6.57
2017-11-25T11:27:50.810Z,6.50
2017-11-25T11:29:43.554Z,6.54
2017-11-25T11:30:43.499Z,6.60
2017-11-25T11:32:36.248Z,6.51
2017-11-25T11:33:36.188Z,6.51
2017-11-25T11:35:28.957Z,6.51
2017-11-25T11:36:28.893Z,6.45
2017-11-25T11:38:21.653Z,6.16
2017-11-25T11:39:21.597Z,6.19
2017-11-25T11:41:14.356Z,6.13
2017-11-25T11:42:14.279Z,6.08
2017-11-25T11:44:07.061Z,6.06
2017-11-25T11:45:07.005Z,6.05
2017-11-25T11:46:59.763Z,6.13
2017-11-25T11:47:59.714Z,6.06
2017-11-25T11:49:52.467Z,6.13
2017-11-25T11:50:52.393Z,6.06
2017-11-25T11:52:45.200Z,6.13
2017-11-25T11:53:45.120Z,6.11
2017-11-25T11:55:37.881Z,6.16
2017-11-25T11:56:37.825Z,6.17
2017-11-25T11:57:37.741Z,6.06
2017-11-25T11:58:37.680Z,6.05
2017-11-25T11:59:37.606Z,5.88
2017-11-25T12:00:37.548Z,5.84
2017-11-25T12:01:37.488Z,5.74
2017-11-25T12:02:37.424Z,5.74
2017-11-25T12:03:37.372Z,5.87
2017-11-25T12:04:37.316Z,5.93
2017-11-25T12:05:37.241Z,5.87
2017-11-25T12:06:37.174Z,5.95
2017-11-25T12:07:37.106Z,5.99
2017-11-25T12:08:37.046Z,5.88
2017-11-25T12:09:36.994Z,5.90
2017-11-25T12:10:36.927Z,5.87
2017-11-25T12:11:36.871Z,5.75
2017-11-25T12:12:36.807Z,5.88
2017-11-25T12:13:36.738Z,5.90
2017-11-25T12:14:36.707Z,5.88
2017-11-25T12:15:36.658Z,5.92
2017-11-25T12:16:36.555Z,5.92
2017-11-25T12:17:36.491Z,5.90
2017-11-25T12:18:36.425Z,6.01
2017-11-25T12:19:36.369Z,6.02
2017-11-25T12:20:36.312Z,5.96
2017-11-25T12:21:36.259Z,5.88
2017-11-25T12:22:36.192Z,5.84
2017-11-25T12:23:36.116Z,5.87
2017-11-25T12:24:36.050Z,5.92
2017-11-25T12:25:35.996Z,5.92
2017-11-25T12:26:35.943Z,5.99
2017-11-25T12:27:35.867Z,5.95
2017-11-25T12:28:35.810Z,5.93
2017-11-25T12:29:35.755Z,5.99
2017-11-25T12:30:35.680Z,5.96
2017-11-25T12:31:35.716Z,5.98
2017-11-25T12:32:35.560Z,5.98
2017-11-25T12:33:35.494Z,5.95
2017-11-25T12:34:35.433Z,5.93
2017-11-25T12:35:35.366Z,5.87
2017-11-25T12:36:35.316Z,5.74
2017-11-25T12:37:35.251Z,5.80
2017-11-25T12:38:35.187Z,5.80
2017-11-25T12:39:35.124Z,5.70
2017-11-25T12:40:35.058Z,5.73
2017-11-25T12:41:35.037Z,5.66
2017-11-25T12:42:34.927Z,5.65
2017-11-25T12:43:34.875Z,5.70
2017-11-25T12:44:34.841Z,5.78
2017-11-25T12:45:34.767Z,5.73
2017-11-25T12:46:34.734Z,5.75
2017-11-25T12:47:34.624Z,5.75
2017-11-25T12:48:34.558Z,5.77
2017-11-25T12:49:34.511Z,5.75
2017-11-25T12:50:34.440Z,5.63
2017-11-25T12:51:34.554Z,5.65
2017-11-25T12:52:34.336Z,5.66
2017-11-25T12:53:34.273Z,5.70
2017-11-25T12:54:34.192Z,5.66
2017-11-25T12:55:34.137Z,5.75
2017-11-25T12:56:34.094Z,5.69
2017-11-25T12:57:34.012Z,5.67
2017-11-25T12:58:33.956Z,5.65
2017-11-25T12:59:33.923Z,5.65
2017-11-25T13:00:33.911Z,5.63
2017-11-25T13:01:33.913Z,5.66
2017-11-25T13:02:33.831Z,5.60
2017-11-25T13:06:45.489Z,5.62
2017-11-25T13:07:45.384Z,5.66
2017-11-25T13:09:38.174Z,5.70
2017-11-25T13:10:38.089Z,5.66
2017-11-25T13:12:30.865Z,5.63
2017-11-25T13:13:30.787Z,5.60
2017-11-25T13:15:23.552Z,5.63
2017-11-25T13:16:23.484Z,5.67
2017-11-25T13:18:16.252Z,5.60
2017-11-25T13:19:16.199Z,5.67
2017-11-25T13:21:08.943Z,5.69
2017-11-25T13:22:08.881Z,5.77
2017-11-25T13:24:01.653Z,5.69
2017-11-25T13:25:01.589Z,5.77
2017-11-25T13:26:54.341Z,5.60
2017-11-25T13:27:54.292Z,5.60
2017-11-25T13:29:47.264Z,5.49
2017-11-25T13:30:47.192Z,5.44
2017-11-25T13:32:39.962Z,5.37
2017-11-25T13:33:39.898Z,5.42
2017-11-25T13:35:32.667Z,5.42
2017-11-25T13:36:32.599Z,5.51
2017-11-25T13:38:25.424Z,5.49
2017-11-25T13:39:25.329Z,5.44
2017-11-25T13:41:18.101Z,5.44
2017-11-25T13:42:18.036Z,5.41
2017-11-25T13:44:10.827Z,5.42
2017-11-25T13:45:10.733Z,5.41
2017-11-25T13:47:03.515Z,5.30
2017-11-25T13:48:03.441Z,5.41
2017-11-25T13:49:56.271Z,5.38
2017-11-25T13:50:56.145Z,5.40
2017-11-25T13:52:48.908Z,5.26
2017-11-25T13:53:48.843Z,5.20
2017-11-25T13:55:41.638Z,5.14
2017-11-25T13:56:41.565Z,5.04
2017-11-25T13:58:34.320Z,5.09
2017-11-25T13:59:34.251Z,5.09
2017-11-25T14:01:27.046Z,5.06
2017-11-25T14:02:26.951Z,5.09
2017-11-25T14:04:19.720Z,5.11
2017-11-25T14:05:19.644Z,5.15
2017-11-25T14:07:12.422Z,5.08
2017-11-25T14:08:12.341Z,5.23
2017-11-25T14:10:05.123Z,5.09
2017-11-25T14:11:05.051Z,5.09
2017-11-25T14:12:57.821Z,5.06
2017-11-25T14:13:57.751Z,5.05
2017-11-25T14:15:50.520Z,4.88
2017-11-25T14:16:50.452Z,4.91
2017-11-25T14:18:43.210Z,4.91
2017-11-25T14:19:43.142Z,4.96
2017-11-25T14:21:35.922Z,4.83
2017-11-25T14:22:35.858Z,4.97
2017-11-25T14:24:28.601Z,4.90
2017-11-25T14:25:28.533Z,4.93
2017-11-25T14:27:21.320Z,5.06
2017-11-25T14:28:21.218Z,5.06
2017-11-25T14:30:14.025Z,5.05
2017-11-25T14:31:13.925Z,5.04
2017-11-25T14:33:06.695Z,5.12
2017-11-25T14:34:06.617Z,5.19
2017-11-25T14:35:59.409Z,5.15
2017-11-25T14:36:59.315Z,5.17
2017-11-25T14:38:52.074Z,5.06
2017-11-25T14:39:52.017Z,5.04
2017-11-25T14:41:44.782Z,5.06
2017-11-25T14:42:44.720Z,5.14
2017-11-25T14:44:37.480Z,5.17
2017-11-25T14:45:37.398Z,5.02
2017-11-25T14:47:30.190Z,4.97
2017-11-25T14:48:30.105Z,5.01
2017-11-25T14:50:22.886Z,4.87
2017-11-25T14:51:22.806Z,4.87
2017-11-25T14:53:15.566Z,4.83
2017-11-25T14:54:15.507Z,4.77
2017-11-25T14:56:08.260Z,4.75
2017-11-25T14:57:08.186Z,4.84
2017-11-25T14:59:00.959Z,4.77
2017-11-25T15:00:00.890Z,4.77
2017-11-25T15:01:53.646Z,4.74
2017-11-25T15:02:53.576Z,4.86
2017-11-25T15:04:46.351Z,4.79
2017-11-25T15:05:46.267Z,4.80
2017-11-25T15:07:39.087Z,4.84
2017-11-25T15:08:38.990Z,4.90
2017-11-25T15:10:31.787Z,4.94
2017-11-25T15:11:31.742Z,4.87
2017-11-25T15:13:24.543Z,4.83
2017-11-25T15:14:24.405Z,4.87
2017-11-25T15:16:17.227Z,4.91
2017-11-25T15:17:17.134Z,4.90
2017-11-25T15:19:10.810Z,4.96
2017-11-25T15:20:10.756Z,4.93
2017-11-25T15:22:03.543Z,5.05
2017-11-25T15:23:03.457Z,5.06
2017-11-25T15:26:47.861Z,5.01
2017-11-25T15:27:47.932Z,5.11
2017-11-25T15:29:40.475Z,5.11
2017-11-25T15:30:40.397Z,5.06
2017-11-25T15:32:33.181Z,5.04
2017-11-25T15:33:33.174Z,5.11
2017-11-25T15:34:33.049Z,4.99
2017-11-25T15:35:33.027Z,5.11
2017-11-25T15:36:32.915Z,5.05
2017-11-25T15:37:32.867Z,5.12
2017-11-25T15:38:32.801Z,5.19
2017-11-25T15:39:32.731Z,5.17
2017-11-25T15:40:32.679Z,5.09
2017-11-25T15:41:32.607Z,5.19
2017-11-25T15:42:32.549Z,5.15
2017-11-25T15:43:32.473Z,5.24
2017-11-25T15:44:32.411Z,5.22
2017-11-25T15:45:32.350Z,5.14
2017-11-25T15:46:32.287Z,5.11
2017-11-25T15:47:32.232Z,5.22
2017-11-25T15:48:32.202Z,5.23
2017-11-25T15:49:32.126Z,5.12
2017-11-25T15:50:32.067Z,5.20
2017-11-25T15:51:31.994Z,5.22
2017-11-25T15:52:31.912Z,5.26
2017-11-25T15:53:31.900Z,5.19
2017-11-25T15:54:31.789Z,5.26
2017-11-25T15:55:31.726Z,5.27
2017-11-25T15:56:31.687Z,5.22
2017-11-25T15:57:31.597Z,5.26
2017-11-25T15:58:31.589Z,5.35
2017-11-25T15:59:31.547Z,5.42
2017-11-25T16:00:31.399Z,5.27
2017-11-25T16:01:31.359Z,5.33
2017-11-25T16:02:31.278Z,5.37
2017-11-25T16:03:31.287Z,5.40
2017-11-25T16:04:31.313Z,5.37
2017-11-25T16:05:31.100Z,5.37
2017-11-25T16:06:31.037Z,5.38
2017-11-25T16:07:31.001Z,5.26
2017-11-25T16:08:30.962Z,5.35
2017-11-25T16:09:30.853Z,5.38
2017-11-25T16:10:30.854Z,5.41
2017-11-25T16:11:30.723Z,5.38
2017-11-25T16:12:30.671Z,5.40
2017-11-25T16:13:30.615Z,5.47
2017-11-25T16:14:30.599Z,5.37
2017-11-25T16:15:30.474Z,5.33
2017-11-25T16:16:30.404Z,5.35
2017-11-25T16:17:30.364Z,5.40
2017-11-25T16:18:30.303Z,5.42
2017-11-25T16:19:30.247Z,5.29
2017-11-25T16:20:30.198Z,5.32
2017-11-25T16:21:30.079Z,5.37
2017-11-25T16:22:30.017Z,5.37
2017-11-25T16:23:29.949Z,5.44
2017-11-25T16:24:29.892Z,5.30
2017-11-25T16:25:29.827Z,5.33
2017-11-25T16:26:29.769Z,5.29
2017-11-25T16:27:30.209Z,5.24
2017-11-25T16:28:29.633Z,5.35
2017-11-25T16:29:29.578Z,5.30
2017-11-25T16:30:29.510Z,5.41
2017-11-25T16:31:30.207Z,5.41
2017-11-25T16:32:29.393Z,5.24
2017-11-25T16:33:29.324Z,5.41
2017-11-25T16:34:30.710Z,5.35
2017-11-25T16:35:29.217Z,5.37
2017-11-25T16:36:29.168Z,5.37
2017-11-25T16:37:29.078Z,5.37
2017-11-25T16:38:29.001Z,5.44
2017-11-25T16:39:28.942Z,5.41
2017-11-25T16:40:29.709Z,5.38
2017-11-25T16:41:28.817Z,5.44
2017-11-25T16:42:28.753Z,5.42
2017-11-25T16:43:28.708Z,5.33
2017-11-25T16:44:28.630Z,5.40
2017-11-25T16:45:28.567Z,5.42
2017-11-25T16:46:28.498Z,5.44
2017-11-25T16:47:28.437Z,5.48
2017-11-25T16:48:28.378Z,5.45
2017-11-25T16:49:29.212Z,5.41
2017-11-25T16:50:28.260Z,5.44
2017-11-25T16:51:28.205Z,5.49
2017-11-25T16:52:28.714Z,5.41
2017-11-25T16:53:28.718Z,5.44
2017-11-25T16:54:28.712Z,5.47
2017-11-25T16:55:27.932Z,5.44
2017-11-25T16:56:28.717Z,5.45
2017-11-25T16:57:27.818Z,5.49
2017-11-25T16:58:28.716Z,5.38
2017-11-25T16:59:27.694Z,5.49
2017-11-25T17:00:27.614Z,5.49
2017-11-25T17:01:28.215Z,5.60
2017-11-25T17:02:29.224Z,5.66
2017-11-25T17:03:27.431Z,5.67
2017-11-25T17:04:28.214Z,5.66
2017-11-25T17:05:27.300Z,5.69
2017-11-25T17:06:27.254Z,5.83
2017-11-25T17:07:27.715Z,5.75
2017-11-25T17:08:27.721Z,5.77
2017-11-25T17:09:27.065Z,5.73
2017-11-25T17:10:26.992Z,5.66
2017-11-25T17:11:27.715Z,5.74
2017-11-25T17:12:26.869Z,5.80
2017-11-25T17:13:26.808Z,5.80
2017-11-25T17:14:26.759Z,5.74
2017-11-25T17:15:27.223Z,5.77
2017-11-25T17:16:27.219Z,5.73
2017-11-25T17:17:27.247Z,5.83
2017-11-25T17:18:26.479Z,5.85
2017-11-25T17:19:26.418Z,5.96
2017-11-25T17:20:26.360Z,5.88
2017-11-25T17:21:26.345Z,5.88
2017-11-25T17:22:26.234Z,5.88
2017-11-25T17:23:26.719Z,5.90
2017-11-25T17:24:26.720Z,5.92
2017-11-25T17:25:26.043Z,5.95
2017-11-25T17:26:26.029Z,6.01
2017-11-25T17:27:25.921Z,5.93
2017-11-25T17:28:25.857Z,5.92
2017-11-25T17:29:26.727Z,5.93
2017-11-25T17:30:25.745Z,5.98
2017-11-25T17:31:26.221Z,5.96
2017-11-25T17:32:25.606Z,5.92
2017-11-25T17:33:25.559Z,5.95
2017-11-25T17:34:26.219Z,5.90
2017-11-25T17:35:27.220Z,5.90
2017-11-25T17:36:26.221Z,5.90
2017-11-25T17:37:26.223Z,5.88
2017-11-25T17:38:25.246Z,5.96
2017-11-25T17:39:25.182Z,5.87
2017-11-25T17:40:25.103Z,5.90
2017-11-25T17:41:25.036Z,5.85
2017-11-25T17:42:24.986Z,5.77
2017-11-25T17:43:25.724Z,5.78
2017-11-25T17:44:24.849Z,5.78
2017-11-25T17:45:24.796Z,5.78
2017-11-25T17:46:24.758Z,5.75
2017-11-25T17:47:25.221Z,5.95
2017-11-25T17:48:25.224Z,5.90
2017-11-25T17:49:24.539Z,5.84
2017-11-25T17:50:25.236Z,5.85
2017-11-25T17:51:25.225Z,5.95
2017-11-25T17:52:25.223Z,5.95
2017-11-25T17:53:25.224Z,5.98
2017-11-25T17:54:24.238Z,5.93
2017-11-25T17:55:24.723Z,6.01
2017-11-25T17:56:24.100Z,5.98
2017-11-25T17:57:24.723Z,5.88
2017-11-25T17:58:23.975Z,5.90
2017-11-25T17:59:25.226Z,5.96
2017-11-25T18:00:24.725Z,5.96
2017-11-25T18:01:23.791Z,5.87
2017-11-25T18:02:23.735Z,5.93
2017-11-25T18:03:23.660Z,5.90
2017-11-25T18:04:23.599Z,5.93
2017-11-25T18:05:23.551Z,5.98
2017-11-25T18:06:23.465Z,5.90
2017-11-25T18:07:23.415Z,5.96
2017-11-25T18:08:23.345Z,5.93
2017-11-25T18:09:23.288Z,5.99
2017-11-25T18:10:23.234Z,5.98
2017-11-25T18:11:23.728Z,6.03
2017-11-25T18:12:23.098Z,6.14
2017-11-25T18:13:23.035Z,6.13
2017-11-25T18:14:22.969Z,6.13
2017-11-25T18:15:22.905Z,6.06
2017-11-25T18:16:22.859Z,6.13
2017-11-25T18:17:23.741Z,6.13
2017-11-25T18:18:22.731Z,6.08
2017-11-25T18:19:23.731Z,6.08
2017-11-25T18:20:23.233Z,6.10
2017-11-25T18:21:22.529Z,5.98
2017-11-25T18:22:22.468Z,5.98
2017-11-25T18:23:22.485Z,5.98
2017-11-25T18:24:23.236Z,5.93
2017-11-25T18:25:23.229Z,6.10
2017-11-25T18:26:22.227Z,6.10
2017-11-25T18:27:22.161Z,6.13
2017-11-25T18:28:22.084Z,6.14
2017-11-25T18:29:23.232Z,6.10
2017-11-25T18:30:22.786Z,6.10
2017-11-25T18:31:22.737Z,6.10
2017-11-25T18:32:22.732Z,6.11
2017-11-25T18:33:21.791Z,6.13
2017-11-25T18:34:22.237Z,6.10
2017-11-25T18:35:22.235Z,6.14
2017-11-25T18:36:21.583Z,6.14
2017-11-25T18:37:22.233Z,6.14
2017-11-25T18:38:22.233Z,6.17
2017-11-25T18:39:21.397Z,6.14
2017-11-25T18:40:22.237Z,6.11
2017-11-25T18:41:21.280Z,6.03
2017-11-25T18:42:21.223Z,6.06
2017-11-25T18:43:21.745Z,6.03
2017-11-25T18:44:21.112Z,6.08
2017-11-25T18:45:21.016Z,6.10
2017-11-25T18:46:20.957Z,6.20
2017-11-25T18:47:21.735Z,6.11
2017-11-25T18:48:20.840Z,6.16
2017-11-25T18:49:21.738Z,6.06
2017-11-25T18:50:21.239Z,6.06
2017-11-25T18:51:20.652Z,5.95
2017-11-25T18:52:20.582Z,6.06
2017-11-25T18:53:21.238Z,6.06
2017-11-25T18:54:20.454Z,6.06
2017-11-25T18:55:20.413Z,5.96
2017-11-25T18:56:20.335Z,5.96
2017-11-25T18:57:20.276Z,6.06
2017-11-25T18:58:20.248Z,5.99
2017-11-25T18:59:20.172Z,6.08
2017-11-25T19:00:20.108Z,6.13
2017-11-25T19:01:20.016Z,6.16
2017-11-25T19:02:19.999Z,6.08
2017-11-25T19:03:19.890Z,6.06
2017-11-25T19:04:19.826Z,6.20
2017-11-25T19:05:19.819Z,6.21
2017-11-25T19:06:19.753Z,6.27
2017-11-25T19:07:19.715Z,6.30
2017-11-25T19:08:19.683Z,6.38
2017-11-25T19:09:19.529Z,6.32
2017-11-25T19:10:19.549Z,6.27
2017-11-25T19:11:19.400Z,6.19
2017-11-25T19:12:19.448Z,6.24
2017-11-25T19:13:19.413Z,6.24
2017-11-25T19:14:19.480Z,6.21
2017-11-25T19:15:19.310Z,6.21
2017-11-25T19:16:19.133Z,6.20